Time;durP1;ratioP1;P1;durP2;ratioP2;P2;SDS_P1;SDS_P2;PMS_P1;PMS_P2;Temp;Humidity;BMP_temperature;BMP_pressure;BME280_temperature;BME280_humidity;BME280_pressure;Samples;Min_cycle;Max_cycle;Signal;HPM_P1;HPM_P2
2021/04/01 00:00:49;;;;;;;10.88;8.82;;;7.60;65.40;;;;;;5122683;28;20050;-70
2021/04/01 00:03:21;;;;;;;13.50;9.30;;;7.60;65.30;;;;;;5121749;28;20086;-70
2021/04/01 00:05:52;;;;;;;11.57;8.25;;;7.60;65.40;;;;;;5122524;28;20512;-70
2021/04/01 00:08:24;;;;;;;13.73;8.95;;;7.60;66.30;;;;;;5124052;28;20051;-69
2021/04/01 00:10:56;;;;;;;11.40;8.52;;;7.60;65.80;;;;;;5128715;28;20079;-69
2021/04/01 00:13:28;;;;;;;9.77;8.48;;;7.60;65.20;;;;;;5126097;28;20047;-69
2021/04/01 00:15:59;;;;;;;10.23;8.65;;;7.70;65.30;;;;;;5125016;28;20520;-69
2021/04/01 00:18:31;;;;;;;12.07;9.00;;;7.70;64.10;;;;;;5126421;28;20047;-68
2021/04/01 00:21:03;;;;;;;13.35;8.70;;;7.70;64.90;;;;;;5120457;28;20043;-69
2021/04/01 00:23:35;;;;;;;9.73;7.97;;;7.60;65.00;;;;;;5121075;28;20101;-69
2021/04/01 00:26:06;;;;;;;11.98;8.73;;;7.60;64.80;;;;;;5123146;28;20043;-68
2021/04/01 00:28:38;;;;;;;13.23;8.52;;;7.60;64.80;;;;;;5126583;28;20050;-69
2021/04/01 00:31:09;;;;;;;11.73;8.43;;;7.50;65.30;;;;;;5125532;28;20439;-68
2021/04/01 00:33:40;;;;;;;11.55;8.80;;;7.50;65.10;;;;;;5125246;28;20049;-69
2021/04/01 00:36:12;;;;;;;12.15;8.40;;;7.40;65.50;;;;;;5155080;28;20044;-69
2021/04/01 00:38:43;;;;;;;10.55;8.18;;;7.30;65.60;;;;;;5119962;28;20039;-69
2021/04/01 00:41:16;;;;;;;12.73;8.20;;;7.30;65.00;;;;;;5124923;28;20836;-68
2021/04/01 00:43:48;;;;;;;10.57;8.20;;;7.40;65.10;;;;;;5123988;28;20059;-69
2021/04/01 00:46:19;;;;;;;13.57;8.48;;;7.30;65.10;;;;;;5118001;28;20047;-69
2021/04/01 00:48:51;;;;;;;9.93;7.95;;;7.30;65.30;;;;;;5121203;28;20612;-68
2021/04/01 00:51:22;;;;;;;12.50;8.30;;;7.30;65.00;;;;;;5119226;28;20039;-69
2021/04/01 00:53:54;;;;;;;11.85;8.30;;;7.20;64.90;;;;;;5123964;28;20043;-69
2021/04/01 00:56:25;;;;;;;9.10;7.97;;;7.20;65.00;;;;;;5122079;28;20440;-69
2021/04/01 00:58:57;;;;;;;9.32;8.15;;;7.20;64.90;;;;;;5123028;28;20049;-68
2021/04/01 01:01:39;;;;;;;12.10;8.35;;;7.20;64.90;;;;;;5124426;28;20047;-68
2021/04/01 01:04:15;;;;;;;10.70;8.65;;;7.20;64.60;;;;;;5124440;28;20043;-68
2021/04/01 01:06:46;;;;;;;13.27;8.52;;;7.30;64.30;;;;;;5124065;28;20051;-69
2021/04/01 01:09:18;;;;;;;12.82;8.43;;;7.30;64.20;;;;;;5123651;28;20695;-68
2021/04/01 01:11:49;;;;;;;11.68;8.63;;;7.40;63.30;;;;;;5121573;28;20047;-69
2021/04/01 01:14:21;;;;;;;14.02;8.23;;;7.40;63.10;;;;;;5140041;28;20125;-68
2021/04/01 01:16:53;;;;;;;10.82;7.80;;;7.30;63.20;;;;;;5122184;28;20046;-67
2021/04/01 01:19:25;;;;;;;12.68;8.20;;;7.40;62.90;;;;;;5125343;28;20042;-68
2021/04/01 01:21:56;;;;;;;13.40;8.30;;;7.40;63.30;;;;;;5123915;28;20067;-68
2021/04/01 01:24:28;;;;;;;12.20;8.38;;;7.40;64.00;;;;;;5125604;28;20158;-69
2021/04/01 01:27:01;;;;;;;12.27;8.43;;;7.30;62.90;;;;;;5124827;28;20052;-67
2021/04/01 01:29:33;;;;;;;13.38;8.43;;;7.40;62.10;;;;;;5123501;28;20822;-69
2021/04/01 01:32:05;;;;;;;10.23;8.38;;;7.50;61.90;;;;;;5126015;28;20137;-70
2021/04/01 01:34:36;;;;;;;10.95;8.00;;;7.60;63.10;;;;;;5124576;28;20055;-69
2021/04/01 01:37:08;;;;;;;12.88;8.20;;;7.60;62.00;;;;;;5119542;28;20052;-69
2021/04/01 01:39:40;;;;;;;8.95;8.00;;;7.60;61.90;;;;;;5120954;28;20530;-69
2021/04/01 01:42:11;;;;;;;10.90;8.05;;;7.60;61.80;;;;;;5121243;28;20074;-69
2021/04/01 01:44:42;;;;;;;11.65;8.07;;;7.50;62.10;;;;;;5122540;28;20063;-68
2021/04/01 01:47:14;;;;;;;10.38;7.78;;;7.40;62.50;;;;;;5147942;28;20528;-68
2021/04/01 01:49:45;;;;;;;9.75;8.35;;;7.40;62.40;;;;;;5123832;28;20544;-69
2021/04/01 01:52:17;;;;;;;9.10;7.85;;;7.40;62.90;;;;;;5125745;28;20039;-70
2021/04/01 01:54:48;;;;;;;11.65;8.40;;;7.40;63.00;;;;;;5125608;28;20141;-69
2021/04/01 01:57:19;;;;;;;10.10;8.25;;;7.40;61.60;;;;;;5120306;28;20078;-69
2021/04/01 01:59:51;;;;;;;8.80;7.90;;;7.50;61.30;;;;;;5125357;28;20050;-68
2021/04/01 02:02:22;;;;;;;16.52;8.32;;;7.40;61.20;;;;;;5122910;28;20126;-69
2021/04/01 02:04:54;;;;;;;10.23;7.85;;;7.40;60.90;;;;;;5124884;28;20138;-69
2021/04/01 02:07:25;;;;;;;11.75;7.72;;;7.40;61.20;;;;;;5121691;28;20043;-69
2021/04/01 02:09:56;;;;;;;11.45;7.53;;;7.30;61.40;;;;;;5125873;28;20528;-69
2021/04/01 02:12:28;;;;;;;11.55;7.93;;;7.20;61.70;;;;;;5122230;28;20138;-68
2021/04/01 02:14:59;;;;;;;12.13;7.82;;;7.30;62.40;;;;;;5125754;28;20532;-68
2021/04/01 02:17:31;;;;;;;10.18;7.82;;;7.20;62.80;;;;;;5124322;28;20075;-68
2021/04/01 02:20:03;;;;;;;10.05;7.47;;;7.10;62.60;;;;;;5128424;28;20054;-69
2021/04/01 02:22:34;;;;;;;12.25;8.30;;;7.10;62.50;;;;;;5125675;28;20576;-69
2021/04/01 02:25:07;;;;;;;11.20;8.35;;;7.10;62.60;;;;;;5129255;28;20082;-69
2021/04/01 02:27:38;;;;;;;12.57;8.10;;;7.10;62.30;;;;;;5129717;28;20075;-68
2021/04/01 02:30:10;;;;;;;9.32;8.00;;;7.10;62.50;;;;;;5127190;28;20106;-67
2021/04/01 02:32:42;;;;;;;11.77;7.60;;;7.00;62.50;;;;;;5126804;28;20452;-68
2021/04/01 02:35:13;;;;;;;11.45;8.13;;;7.00;62.30;;;;;;5126578;28;20516;-68
2021/04/01 02:37:45;;;;;;;13.55;8.13;;;7.00;62.10;;;;;;5128351;28;20125;-68
2021/04/01 02:40:17;;;;;;;11.75;8.48;;;7.10;62.20;;;;;;5126185;28;20097;-69
2021/04/01 02:42:48;;;;;;;11.45;8.40;;;7.10;62.40;;;;;;5129318;28;20054;-68
2021/04/01 02:45:20;;;;;;;10.82;8.32;;;7.10;62.00;;;;;;5125986;28;20457;-68
2021/04/01 02:47:52;;;;;;;11.38;8.50;;;7.10;62.10;;;;;;5127643;28;20040;-69
2021/04/01 02:50:24;;;;;;;9.55;7.78;;;7.10;62.10;;;;;;5128204;28;20126;-68
2021/04/01 02:52:55;;;;;;;9.52;8.20;;;7.10;62.00;;;;;;5127021;28;20057;-68
2021/04/01 02:55:27;;;;;;;10.18;8.07;;;7.00;62.20;;;;;;5125637;28;20178;-69
2021/04/01 02:57:58;;;;;;;9.32;8.15;;;7.00;62.20;;;;;;5126681;28;20043;-69
2021/04/01 03:00:31;;;;;;;10.02;8.30;;;7.00;62.60;;;;;;5128186;28;20050;-68
2021/04/01 03:05:36;;;;;;;9.52;7.43;;;6.90;62.50;;;;;;5124331;28;20078;-68
2021/04/01 03:08:08;;;;;;;10.85;7.30;;;7.00;62.30;;;;;;5123254;28;20477;-68
2021/04/01 03:10:40;;;;;;;9.52;7.22;;;7.00;61.90;;;;;;5124901;28;20043;-68
2021/04/01 03:13:11;;;;;;;10.07;8.00;;;7.10;62.00;;;;;;5124010;28;20815;-69
2021/04/01 03:15:51;;;;;;;9.40;8.00;;;7.00;62.30;;;;;;5126727;28;20062;-68
2021/04/01 03:18:23;;;;;;;10.52;7.70;;;6.90;63.20;;;;;;5125612;28;20509;-69
2021/04/01 03:20:55;;;;;;;12.98;8.18;;;6.90;63.30;;;;;;5123083;28;20047;-68
2021/04/01 03:23:29;;;;;;;12.43;8.25;;;6.90;63.00;;;;;;5158566;28;20049;-68
2021/04/01 03:26:00;;;;;;;10.05;7.93;;;6.90;62.80;;;;;;5127757;28;20050;-68
2021/04/01 03:28:32;;;;;;;11.15;7.78;;;7.00;62.60;;;;;;5128281;28;20517;-70
2021/04/01 03:31:03;;;;;;;10.50;7.72;;;7.00;62.90;;;;;;5131318;28;20079;-70
2021/04/01 03:33:35;;;;;;;12.07;7.88;;;6.90;63.30;;;;;;5159216;28;20642;-70
2021/04/01 03:36:06;;;;;;;10.63;8.05;;;6.90;63.10;;;;;;5123181;28;20280;-70
2021/04/01 03:38:38;;;;;;;9.90;8.02;;;6.90;62.90;;;;;;5120861;28;20154;-69
2021/04/01 03:41:10;;;;;;;11.43;8.23;;;6.90;63.10;;;;;;5117862;28;20062;-69
2021/04/01 03:43:41;;;;;;;12.18;7.95;;;6.90;62.70;;;;;;5124571;28;20043;-69
2021/04/01 03:46:13;;;;;;;10.75;7.60;;;6.80;62.80;;;;;;5125065;28;20091;-69
2021/04/01 03:48:45;;;;;;;10.32;8.13;;;6.70;62.80;;;;;;5122741;28;20039;-69
2021/04/01 03:51:16;;;;;;;13.25;8.35;;;6.70;63.30;;;;;;5125988;28;20054;-69
2021/04/01 03:53:48;;;;;;;10.55;7.55;;;6.60;63.00;;;;;;5129477;28;20051;-70
2021/04/01 03:56:19;;;;;;;9.73;7.95;;;6.60;63.90;;;;;;5127095;28;20046;-71
2021/04/01 03:59:00;;;;;;;9.52;7.82;;;6.50;64.50;;;;;;5106992;28;20194;-70
2021/04/01 04:12:30;;;;;;;10.15;8.75;;;6.70;64.10;;;;;;5121305;28;20043;-70
2021/04/01 04:15:12;;;;;;;10.95;8.07;;;6.80;64.00;;;;;;5119506;28;20130;-70
2021/04/01 04:17:44;;;;;;;9.70;8.50;;;6.70;64.40;;;;;;5131103;28;20055;-69
2021/04/01 04:20:16;;;;;;;10.90;8.75;;;6.70;64.00;;;;;;5125277;28;20039;-70
2021/04/01 04:22:50;;;;;;;11.55;9.43;;;6.60;63.80;;;;;;5123359;28;20048;-71
2021/04/01 04:25:23;;;;;;;14.52;8.48;;;6.50;63.50;;;;;;5124483;28;20173;-70
2021/04/01 04:30:27;;;;;;;12.55;8.73;;;6.40;65.20;;;;;;5125982;28;20117;-70
2021/04/01 04:32:59;;;;;;;12.65;8.68;;;6.50;64.90;;;;;;5128422;28;20720;-70
2021/04/01 04:35:32;;;;;;;9.43;8.43;;;6.60;64.60;;;;;;5127371;28;20035;-71
2021/04/01 04:38:04;;;;;;;9.77;8.60;;;6.70;64.50;;;;;;5125054;28;20186;-72
2021/04/01 04:40:35;;;;;;;10.18;8.60;;;6.70;64.70;;;;;;5124102;28;20742;-71
2021/04/01 04:43:07;;;;;;;11.00;8.43;;;6.60;64.50;;;;;;5120969;28;20061;-71
2021/04/01 04:45:38;;;;;;;12.35;8.68;;;6.70;64.80;;;;;;5126331;28;20615;-70
2021/04/01 04:48:10;;;;;;;10.60;9.32;;;6.60;65.30;;;;;;5128882;28;20142;-71
2021/04/01 04:50:41;;;;;;;10.30;8.50;;;6.50;65.80;;;;;;5126432;28;20071;-71
2021/04/01 04:53:14;;;;;;;11.90;8.15;;;6.50;65.60;;;;;;5125406;28;20039;-70
2021/04/01 05:01:13;;;;;;;14.90;9.13;;;6.40;66.50;;;;;;5155227;28;20131;-70
2021/04/01 05:09:15;;;;;;;;;;;6.50;65.80;;;;;;5128472;28;20074;-71
2021/04/01 05:11:47;;;;;;;11.43;8.73;;;6.60;65.60;;;;;;5124911;28;19961;-70
2021/04/01 05:14:18;;;;;;;15.02;8.43;;;6.60;65.60;;;;;;5129434;28;20592;-69
2021/04/01 05:16:50;;;;;;;10.65;8.25;;;6.60;65.30;;;;;;5131548;28;20117;-71
2021/04/01 05:19:22;;;;;;;12.38;8.50;;;6.60;64.50;;;;;;5158023;28;20098;-70
2021/04/01 05:24:26;;;;;;;13.38;8.85;;;6.40;66.40;;;;;;5127378;28;20099;-70
2021/04/01 05:29:38;;;;;;;10.13;8.40;;;6.50;65.70;;;;;;5127170;28;20047;-69
2021/04/01 05:32:11;;;;;;;13.35;7.97;;;6.50;65.60;;;;;;5126511;28;20718;-69
2021/04/01 05:34:43;;;;;;;10.73;7.82;;;6.60;65.60;;;;;;5129313;28;20070;-70
2021/04/01 05:37:15;;;;;;;10.05;8.27;;;6.70;65.40;;;;;;5130955;28;20054;-70
2021/04/01 05:39:47;;;;;;;10.77;9.02;;;6.70;65.40;;;;;;5140217;28;20054;-69
2021/04/01 05:42:21;;;;;;;14.35;8.90;;;6.80;65.40;;;;;;5132685;28;20042;-70
2021/04/01 05:44:56;;;;;;;18.85;11.48;;;6.80;65.20;;;;;;5126964;28;20049;-69
2021/04/01 06:01:58;;;;;;;11.60;8.73;;;7.10;64.80;;;;;;5129187;28;20047;-68
2021/04/01 06:04:39;;;;;;;10.88;8.40;;;7.10;66.30;;;;;;5133059;28;20039;-69
2021/04/01 06:07:20;;;;;;;11.57;8.40;;;7.20;65.00;;;;;;5128631;28;20074;-68
2021/04/01 06:09:56;;;;;;;11.43;9.20;;;7.30;64.00;;;;;;5126959;28;20055;-68
2021/04/01 06:12:32;;;;;;;12.48;9.18;;;7.40;63.60;;;;;;5126902;28;20105;-67
2021/04/01 06:15:09;;;;;;;12.75;9.55;;;7.50;64.70;;;;;;5126638;28;20071;-68
2021/04/01 06:17:53;;;;;;;14.32;9.20;;;7.60;64.00;;;;;;5126496;28;20038;-67
2021/04/01 06:20:28;;;;;;;14.32;9.13;;;7.80;63.10;;;;;;5140968;28;20050;-67
2021/04/01 06:23:03;;;;;;;15.60;8.43;;;7.80;63.60;;;;;;5127430;28;20566;-68
2021/04/01 06:25:37;;;;;;;11.93;8.82;;;7.90;64.30;;;;;;5126874;28;20038;-67
2021/04/01 06:28:12;;;;;;;10.18;9.10;;;8.10;64.00;;;;;;5127800;28;20074;-68
2021/04/01 06:30:53;;;;;;;12.25;8.95;;;8.30;63.50;;;;;;5124487;28;20051;-67
2021/04/01 06:33:27;;;;;;;14.70;9.80;;;8.50;62.40;;;;;;5124981;28;20552;-68
2021/04/01 06:36:15;;;;;;;12.30;9.32;;;8.70;62.40;;;;;;5128586;28;20057;-68
2021/04/01 06:38:47;;;;;;;10.10;9.10;;;8.80;62.40;;;;;;5129642;28;20532;-67
2021/04/01 06:41:24;;;;;;;10.80;9.27;;;9.00;62.50;;;;;;5126037;28;20527;-68
2021/04/01 06:44:22;;;;;;;13.25;9.52;;;9.10;62.50;;;;;;5126040;28;20102;-67
2021/04/01 06:47:03;;;;;;;10.23;8.40;;;9.30;62.40;;;;;;5126715;28;20054;-68
2021/04/01 06:50:06;;;;;;;13.00;9.70;;;9.50;62.20;;;;;;5127193;28;20046;-68
2021/04/01 06:52:42;;;;;;;10.20;9.20;;;9.70;61.50;;;;;;5124249;28;20576;-68
2021/04/01 06:55:42;;;;;;;13.15;9.20;;;9.80;60.50;;;;;;5139518;28;20568;-67
2021/04/01 07:01:34;;;;;;;10.10;9.07;;;10.00;61.30;;;;;;5127573;28;20261;-68
2021/04/01 07:04:08;;;;;;;13.00;8.95;;;10.00;61.50;;;;;;5129235;28;20047;-67
2021/04/01 07:06:43;;;;;;;8.98;7.90;;;10.30;59.90;;;;;;5140478;28;20548;-68
2021/04/01 07:09:38;;;;;;;10.63;8.13;;;10.50;57.70;;;;;;5128241;28;20393;-67
2021/04/01 07:12:23;;;;;;;11.27;9.07;;;10.70;58.20;;;;;;5124647;28;20137;-67
2021/04/01 07:15:13;;;;;;;12.93;8.90;;;11.00;57.40;;;;;;5123679;28;20124;-67
2021/04/01 07:17:55;;;;;;;11.63;9.43;;;11.20;56.60;;;;;;5125257;28;20457;-67
2021/04/01 07:48:55;;;;;;;11.80;8.30;;;13.10;49.00;;;;;;5157674;28;20102;-68
2021/04/01 07:54:43;;;;;;;11.48;9.48;;;13.40;48.60;;;;;;5124573;28;20094;-68
2021/04/01 08:00:18;;;;;;;10.60;9.60;;;13.70;49.50;;;;;;5121767;28;20126;-69
2021/04/01 08:03:02;;;;;;;11.68;9.85;;;13.90;49.60;;;;;;5124215;28;20031;-68
2021/04/01 08:05:39;;;;;;;12.45;10.40;;;14.10;48.10;;;;;;5126315;28;20051;-68
2021/04/01 08:08:12;;;;;;;11.00;9.88;;;14.10;47.60;;;;;;5123537;28;20055;-69
2021/04/01 08:10:45;;;;;;;13.27;9.50;;;14.30;49.40;;;;;;5125748;28;20152;-69
2021/04/01 08:13:27;;;;;;;13.40;10.00;;;14.50;48.40;;;;;;5122404;28;20573;-68
2021/04/01 08:16:04;;;;;;;12.43;10.13;;;14.70;48.30;;;;;;5137820;28;20442;-68
2021/04/01 08:18:39;;;;;;;11.45;9.77;;;14.80;48.90;;;;;;5154415;28;20137;-68
2021/04/01 08:21:12;;;;;;;12.32;10.18;;;15.00;47.40;;;;;;5121306;28;20154;-68
2021/04/01 08:24:07;;;;;;;12.10;10.10;;;15.10;46.00;;;;;;5123696;28;20407;-68
2021/04/01 08:33:24;;;;;;;13.63;10.18;;;15.60;43.20;;;;;;5127188;28;20042;-68
2021/04/01 08:36:20;;;;;;;14.30;10.70;;;15.80;42.60;;;;;;5125501;28;20042;-68
2021/04/01 08:39:13;;;;;;;11.70;10.50;;;15.90;42.90;;;;;;5126423;28;20043;-67
2021/04/01 08:42:28;;;;;;;11.43;10.23;;;16.00;42.40;;;;;;5122904;28;20050;-67
2021/04/01 08:45:42;;;;;;;11.90;10.80;;;16.20;42.50;;;;;;5125119;28;20057;-67
2021/04/01 08:48:59;;;;;;;12.05;10.85;;;16.30;41.60;;;;;;5125100;28;20042;-67
2021/04/01 08:51:55;;;;;;;11.55;10.32;;;16.50;40.40;;;;;;5127496;28;20050;-69
2021/04/01 08:54:34;;;;;;;11.52;10.35;;;16.50;39.60;;;;;;5126914;28;20055;-69
2021/04/01 08:57:27;;;;;;;12.88;10.85;;;16.70;41.20;;;;;;5128786;28;20058;-69
2021/04/01 09:00:02;;;;;;;12.57;10.70;;;16.70;38.80;;;;;;5132995;28;20066;-68
2021/04/01 09:02:35;;;;;;;11.93;10.73;;;16.80;38.40;;;;;;5130527;28;20039;-68
2021/04/01 09:05:08;;;;;;;12.27;10.82;;;17.00;38.20;;;;;;5126656;28;20055;-68
2021/04/01 09:08:01;;;;;;;12.00;10.80;;;17.10;39.10;;;;;;5126405;28;20992;-68
2021/04/01 09:10:37;;;;;;;16.55;10.60;;;17.30;38.10;;;;;;5121495;28;20478;-68
2021/04/01 09:13:21;;;;;;;13.30;11.85;;;17.40;36.60;;;;;;5125954;28;20054;-68
2021/04/01 09:16:07;;;;;;;13.18;11.50;;;17.50;36.20;;;;;;5107444;28;20118;-69
2021/04/01 09:18:45;;;;;;;14.52;11.63;;;17.70;36.60;;;;;;5122525;28;20039;-68
2021/04/01 09:21:17;;;;;;;13.77;11.40;;;17.80;35.10;;;;;;5123725;28;20365;-68
2021/04/01 09:23:55;;;;;;;24.20;11.90;;;17.90;34.10;;;;;;5123627;28;20070;-68
2021/04/01 09:26:26;;;;;;;29.08;12.85;;;18.00;34.90;;;;;;5123621;28;20141;-68
2021/04/01 09:29:06;;;;;;;38.88;14.10;;;18.20;32.20;;;;;;5123213;28;20078;-69
2021/04/01 09:31:47;;;;;;;14.33;11.63;;;18.20;32.70;;;;;;5123187;28;20137;-69
2021/04/01 09:34:19;;;;;;;99.38;18.17;;;18.30;31.80;;;;;;5109092;28;20342;-69
2021/04/01 09:36:53;;;;;;;29.45;13.95;;;18.40;33.50;;;;;;5128207;28;20504;-69
2021/04/01 09:39:32;;;;;;;23.80;13.60;;;18.50;32.00;;;;;;5128259;28;20133;-68
2021/04/01 09:42:05;;;;;;;13.85;12.07;;;18.60;30.30;;;;;;5125324;28;20054;-68
2021/04/01 09:44:52;;;;;;;18.30;13.63;;;18.60;30.10;;;;;;5122834;28;20806;-68
2021/04/01 09:47:29;;;;;;;21.38;17.70;;;18.80;30.10;;;;;;5141192;28;20138;-68
2021/04/01 09:50:08;;;;;;;13.93;12.50;;;18.90;30.20;;;;;;5123640;28;20039;-69
2021/04/01 09:52:41;;;;;;;13.63;12.23;;;19.00;30.60;;;;;;5105174;28;20047;-69
2021/04/01 09:55:14;;;;;;;14.88;12.55;;;19.20;29.70;;;;;;5107404;28;20054;-69
2021/04/01 09:57:48;;;;;;;14.93;13.13;;;19.30;29.90;;;;;;5130610;28;20035;-70
2021/04/01 10:04:12;;;;;;;16.77;13.67;;;19.50;30.00;;;;;;5124353;28;20051;-69
2021/04/01 10:06:50;;;;;;;21.38;16.77;;;19.60;29.70;;;;;;5074703;29;20296;-68
2021/04/01 10:09:26;;;;;;;18.65;14.65;;;19.70;29.50;;;;;;5076944;29;20147;-68
2021/04/01 10:12:07;;;;;;;15.55;13.95;;;19.80;31.20;;;;;;5108787;28;20454;-68
2021/04/01 10:14:49;;;;;;;15.32;13.23;;;19.90;30.50;;;;;;5123869;28;20035;-69
2021/04/01 10:17:23;;;;;;;16.83;14.50;;;19.90;30.80;;;;;;5149385;28;20044;-70
2021/04/01 10:19:58;;;;;;;22.77;18.83;;;20.10;31.10;;;;;;5120349;28;20409;-71
2021/04/01 10:22:32;;;;;;;16.05;14.35;;;20.20;31.20;;;;;;5119023;28;20046;-69
2021/04/01 10:28:03;;;;;;;16.42;14.40;;;20.30;30.40;;;;;;5124054;28;20078;-70
2021/04/01 10:30:35;;;;;;;18.85;15.77;;;20.40;31.00;;;;;;5122395;28;20090;-71
2021/04/01 10:33:20;;;;;;;21.30;15.80;;;20.40;30.00;;;;;;5129804;28;20125;-69
2021/04/01 10:35:54;;;;;;;20.42;16.92;;;20.50;30.00;;;;;;5125164;28;20081;-70
2021/04/01 10:38:28;;;;;;;18.50;16.27;;;20.60;30.20;;;;;;5125789;28;20071;-70
2021/04/01 10:41:10;;;;;;;21.35;17.60;;;20.60;29.90;;;;;;5126977;28;20132;-69
2021/04/01 10:43:43;;;;;;;23.88;19.15;;;20.70;30.30;;;;;;5156363;28;20134;-69
2021/04/01 10:46:19;;;;;;;16.65;14.95;;;20.70;30.20;;;;;;5129788;28;20110;-69
2021/04/01 10:49:01;;;;;;;18.48;16.33;;;20.90;30.70;;;;;;5128736;28;20046;-69
2021/04/01 10:51:33;;;;;;;20.13;15.88;;;21.00;29.80;;;;;;5123630;28;20790;-69
2021/04/01 10:54:34;;;;;;;19.75;17.70;;;21.10;29.90;;;;;;5126217;28;20041;-70
2021/04/01 10:57:07;;;;;;;16.40;14.70;;;21.20;28.90;;;;;;5130906;28;20047;-69
2021/04/01 10:59:43;;;;;;;18.92;16.95;;;21.30;28.30;;;;;;5125224;28;20050;-70
2021/04/01 11:02:21;;;;;;;18.95;16.08;;;21.40;28.50;;;;;;5122538;28;20059;-69
2021/04/01 11:05:02;;;;;;;19.20;17.17;;;21.40;28.80;;;;;;5123532;28;20063;-69
2021/04/01 11:07:47;;;;;;;17.52;15.05;;;21.50;29.10;;;;;;5123660;28;20057;-70
2021/04/01 11:10:24;;;;;;;16.67;14.93;;;21.60;28.70;;;;;;5156351;28;20039;-70
2021/04/01 11:13:00;;;;;;;17.20;15.23;;;21.70;28.40;;;;;;5125526;28;20126;-69
2021/04/01 11:15:42;;;;;;;18.15;16.33;;;21.80;28.60;;;;;;5124104;28;20138;-70
2021/04/01 11:18:18;;;;;;;17.38;15.20;;;21.90;28.30;;;;;;5129588;28;20039;-70
2021/04/01 11:20:51;;;;;;;17.00;14.75;;;21.70;27.80;;;;;;5127000;28;20047;-69
2021/04/01 11:23:25;;;;;;;16.45;14.85;;;21.90;28.50;;;;;;5130341;28;20043;-69
2021/04/01 11:25:59;;;;;;;17.25;15.45;;;22.00;28.00;;;;;;5129408;28;20712;-68
2021/04/01 11:28:44;;;;;;;17.38;15.60;;;22.20;28.00;;;;;;5126923;28;20129;-70
2021/04/01 11:31:26;;;;;;;18.23;14.88;;;22.30;28.00;;;;;;5157163;28;20055;-69
2021/04/01 11:33:59;;;;;;;15.25;13.77;;;22.30;27.30;;;;;;5132822;28;20043;-69
2021/04/01 11:36:42;;;;;;;14.82;13.20;;;22.50;27.10;;;;;;5126848;28;20058;-70
2021/04/01 11:39:36;;;;;;;15.68;14.38;;;22.60;27.00;;;;;;5127583;28;20047;-70
2021/04/01 11:42:09;;;;;;;18.85;13.93;;;22.60;26.80;;;;;;5126062;28;20172;-69
2021/04/01 11:44:42;;;;;;;18.50;14.43;;;22.70;26.40;;;;;;5124813;28;20054;-70
2021/04/01 11:47:18;;;;;;;15.32;13.80;;;22.70;26.70;;;;;;5126101;28;20054;-70
2021/04/01 11:49:51;;;;;;;14.40;12.95;;;22.80;26.20;;;;;;5132330;28;20053;-69
2021/04/01 11:52:24;;;;;;;15.18;13.70;;;22.80;24.70;;;;;;5159834;28;20701;-69
2021/04/01 11:54:55;;;;;;;15.27;13.77;;;22.90;25.70;;;;;;5130829;28;20572;-69
2021/04/01 11:57:32;;;;;;;14.80;13.43;;;23.10;25.60;;;;;;5132579;28;20741;-70
2021/04/01 12:00:16;;;;;;;14.95;13.55;;;23.20;26.40;;;;;;5131720;28;20054;-69
2021/04/01 12:03:02;;;;;;;14.63;13.23;;;23.30;26.40;;;;;;5123999;28;21355;-70
2021/04/01 12:05:41;;;;;;;15.13;13.45;;;23.40;25.60;;;;;;5122097;28;20042;-71
2021/04/01 12:08:13;;;;;;;14.98;13.38;;;23.50;26.00;;;;;;5121354;28;20051;-70
2021/04/01 12:10:57;;;;;;;15.48;13.82;;;23.70;25.10;;;;;;5119561;28;20113;-71
2021/04/01 12:13:28;;;;;;;15.80;14.18;;;23.80;25.40;;;;;;5121692;28;20070;-70
2021/04/01 12:16:00;;;;;;;15.48;14.00;;;23.80;24.60;;;;;;5126052;28;20139;-69
2021/04/01 12:18:42;;;;;;;14.93;13.63;;;24.00;25.30;;;;;;5124043;28;20749;-70
2021/04/01 12:21:15;;;;;;;15.32;13.50;;;23.90;24.90;;;;;;5122474;28;20173;-69
2021/04/01 12:23:51;;;;;;;14.82;13.43;;;23.50;25.10;;;;;;5122429;28;20615;-70
2021/04/01 12:26:23;;;;;;;14.35;13.02;;;23.20;25.70;;;;;;5124082;28;20047;-70
2021/04/01 12:28:59;;;;;;;14.70;13.25;;;23.10;25.70;;;;;;5120311;28;20182;-69
2021/04/01 12:31:34;;;;;;;15.02;13.52;;;23.00;26.50;;;;;;5125334;28;20087;-70
2021/04/01 12:34:11;;;;;;;15.00;13.60;;;22.80;26.30;;;;;;5152849;28;20055;-70
2021/04/01 12:36:42;;;;;;;15.75;13.73;;;23.00;26.70;;;;;;5120851;28;20051;-70
2021/04/01 12:39:14;;;;;;;15.60;14.20;;;23.20;26.60;;;;;;5126663;28;20419;-71
2021/04/01 12:41:45;;;;;;;15.63;14.00;;;23.40;26.50;;;;;;5122807;28;20586;-69
2021/04/01 12:44:16;;;;;;;16.63;14.52;;;23.60;26.10;;;;;;5154813;28;20043;-70
2021/04/01 12:46:48;;;;;;;16.05;14.38;;;23.90;26.20;;;;;;5123487;28;20047;-70
2021/04/01 12:49:19;;;;;;;15.88;14.48;;;24.00;25.30;;;;;;5126717;28;20054;-69
2021/04/01 12:51:56;;;;;;;15.80;14.18;;;24.20;25.10;;;;;;5121808;28;20055;-70
2021/04/01 12:54:32;;;;;;;15.48;14.15;;;24.10;25.30;;;;;;5153726;28;20047;-70
2021/04/01 12:57:10;;;;;;;15.45;14.05;;;24.10;25.80;;;;;;5156924;28;20389;-70
2021/04/01 12:59:44;;;;;;;15.18;13.57;;;24.00;25.40;;;;;;5124638;28;20098;-69
2021/04/01 13:02:17;;;;;;;15.50;13.90;;;23.90;24.80;;;;;;5155621;28;20050;-71
2021/04/01 13:04:58;;;;;;;16.15;14.05;;;23.70;25.50;;;;;;5124713;28;20527;-70
2021/04/01 13:12:51;;;;;;;;;;;23.40;26.00;;;;;;5132464;28;20584;-69
2021/04/01 13:15:24;;;;;;;15.75;14.30;;;23.30;26.20;;;;;;5124108;28;20785;-69
2021/04/01 13:17:55;;;;;;;15.40;13.90;;;23.10;26.40;;;;;;5125723;28;20047;-70
2021/04/01 13:20:27;;;;;;;15.23;13.82;;;23.00;26.40;;;;;;5122769;28;20097;-70
2021/04/01 13:25:34;;;;;;;15.18;13.75;;;22.80;26.80;;;;;;5126689;28;20587;-69
2021/04/01 13:28:08;;;;;;;14.98;13.57;;;22.60;26.50;;;;;;5125514;28;20160;-70
2021/04/01 13:30:39;;;;;;;15.75;14.20;;;22.60;26.40;;;;;;5127346;28;20129;-70
2021/04/01 13:33:17;;;;;;;16.50;14.80;;;22.50;27.20;;;;;;5128197;28;20435;-69
2021/04/01 13:35:58;;;;;;;16.67;14.98;;;22.30;27.30;;;;;;5122069;28;20059;-69
2021/04/01 13:38:38;;;;;;;17.60;15.80;;;22.30;27.80;;;;;;5128203;28;20129;-70
2021/04/01 13:41:13;;;;;;;20.13;15.57;;;22.20;27.40;;;;;;5126491;28;20167;-69
2021/04/01 13:43:44;;;;;;;16.90;15.05;;;22.10;27.80;;;;;;5131684;28;20039;-69
2021/04/01 13:46:16;;;;;;;19.23;14.75;;;21.90;28.00;;;;;;5123396;28;20061;-69
2021/04/01 13:48:49;;;;;;;16.40;14.80;;;21.90;28.80;;;;;;5121432;28;20535;-70
2021/04/01 13:51:27;;;;;;;15.85;14.25;;;22.00;28.50;;;;;;5139850;28;20051;-70
2021/04/01 13:54:26;;;;;;;15.80;14.20;;;22.40;28.40;;;;;;5124561;28;20043;-69
2021/04/01 13:57:10;;;;;;;16.17;14.45;;;22.60;28.00;;;;;;5123090;28;20098;-70
2021/04/01 14:00:04;;;;;;;16.25;14.65;;;22.80;27.80;;;;;;5123612;28;20556;-69
2021/04/01 14:11:17;;;;;;;15.65;14.07;;;23.90;26.30;;;;;;5127707;28;20074;-70
2021/04/01 14:13:49;;;;;;;16.48;14.93;;;24.20;25.40;;;;;;5124880;28;20533;-70
2021/04/01 14:16:21;;;;;;;17.20;15.40;;;24.30;25.50;;;;;;5128799;28;20047;-69
2021/04/01 14:18:52;;;;;;;21.10;15.35;;;24.50;25.50;;;;;;5127367;28;20145;-69
2021/04/01 14:21:24;;;;;;;16.77;15.20;;;24.50;25.80;;;;;;5125473;28;20125;-69
2021/04/01 14:23:56;;;;;;;17.70;15.52;;;24.50;25.00;;;;;;5126963;28;20130;-68
2021/04/01 14:26:36;;;;;;;17.65;16.02;;;24.40;25.70;;;;;;5123455;28;20109;-69
2021/04/01 14:29:08;;;;;;;17.33;15.63;;;24.50;25.70;;;;;;5129134;28;20049;-70
2021/04/01 14:31:40;;;;;;;16.98;15.38;;;24.60;26.20;;;;;;5125788;28;20134;-69
2021/04/01 14:34:13;;;;;;;16.65;14.88;;;24.50;25.70;;;;;;5125863;28;20047;-68
2021/04/01 14:36:45;;;;;;;15.70;14.20;;;24.80;25.80;;;;;;5124448;28;20054;-68
2021/04/01 14:39:17;;;;;;;16.65;14.43;;;25.10;24.80;;;;;;5128240;28;20042;-68
2021/04/01 14:41:56;;;;;;;15.85;14.32;;;25.30;23.80;;;;;;5123473;28;20091;-69
2021/04/01 14:44:29;;;;;;;15.73;14.25;;;25.60;24.00;;;;;;5125936;28;20053;-69
2021/04/01 14:47:01;;;;;;;15.55;14.02;;;25.70;23.30;;;;;;5157421;28;20114;-68
2021/04/01 14:49:33;;;;;;;14.77;13.48;;;25.40;23.00;;;;;;5129110;28;20950;-69
2021/04/01 14:52:06;;;;;;;16.02;14.52;;;25.40;22.00;;;;;;5122667;28;20500;-70
2021/04/01 14:54:39;;;;;;;16.02;14.73;;;25.50;22.70;;;;;;5128803;28;20122;-69
2021/04/01 14:57:12;;;;;;;16.38;14.88;;;25.80;23.00;;;;;;5124347;28;20044;-69
2021/04/01 14:59:46;;;;;;;17.63;16.02;;;25.80;23.20;;;;;;5121589;28;20043;-69
2021/04/01 15:02:18;;;;;;;17.25;15.52;;;25.60;23.10;;;;;;5122598;28;20051;-69
2021/04/01 15:04:52;;;;;;;15.95;14.30;;;25.50;23.90;;;;;;5128665;28;21745;-69
2021/04/01 15:07:25;;;;;;;17.15;15.57;;;25.80;24.60;;;;;;5125763;28;20047;-69
2021/04/01 15:10:00;;;;;;;16.98;15.18;;;26.00;23.70;;;;;;5124219;28;20162;-70
2021/04/01 15:12:34;;;;;;;16.52;14.80;;;26.30;23.60;;;;;;5123467;28;20051;-71
2021/04/01 15:15:06;;;;;;;16.92;15.48;;;26.70;22.70;;;;;;5121580;28;20166;-70